PWSweather.com
Personal Weather Stations
Station Observations
KILMORRI1
Goose Lake, Morris, IL 60450

Goose LakeMorris, IL 60450

Lat: 41.34, Lon: -88.3

Elevation: 523

Station Type:

www.gooselakeweather.com

High Low Average
Temperature 49.3°F9.6°C 28.1°F-2.2°C 41.4°F5.2°C
Dew Point 47.1°F8.4°C 23.8°F-4.6°C 38.1°F3.4°C
Winds 10.4 mph 16.7 kmh 3.5 mph 5.6 kmh 6.0 mph SW9.7 kmh SW
Wind Gusts 17.3 mph27.8 kmh 3.5 mph5.6 kmh 9.0 mph14.5 kmh
Humidity 94% 83% 88%
Pressure 30.03 in1016.9 mb 29.68 in1005.1 mb -
Precipitation 0.07 in1.8 mm - -
Hour Temp Dew Point Humidity Winds Wind Gusts Pressure Precip Precip Rate Daily Precip Total
12:00 AM 45.4°F7.4°C 41.8°F5.4°C 87% 5.8 mph S9.3 kmh S 10.4 mph16.7 kmh 29.77 in1008.1 mb - 0.00 in0.0 mm 0.00 in0.0 mm
12:10 AM 45.6°F7.6°C 42.0°F5.6°C 87% 5.8 mph S9.3 kmh S 10.4 mph16.7 kmh 29.77 in1008.1 mb - 0.00 in0.0 mm 0.00 in0.0 mm
12:20 AM 45.6°F7.6°C 42.0°F5.6°C 87% 4.6 mph S7.4 kmh S 8.1 mph13.0 kmh 29.77 in1008.1 mb - 0.00 in0.0 mm 0.00 in0.0 mm
12:30 AM 45.9°F7.7°C 42.2°F5.7°C 87% 5.8 mph S9.3 kmh S 8.1 mph13.0 kmh 29.77 in1008.1 mb - 0.00 in0.0 mm 0.00 in0.0 mm
12:40 AM 46.1°F7.8°C 42.4°F5.8°C 87% 5.8 mph S9.3 kmh S 6.9 mph11.1 kmh 29.77 in1008.1 mb - 0.00 in0.0 mm 0.00 in0.0 mm
12:50 AM 46.0°F7.8°C 42.3°F5.7°C 87% 5.8 mph S9.3 kmh S 9.2 mph14.8 kmh 29.76 in1007.8 mb - 0.00 in0.0 mm 0.00 in0.0 mm
01:00 AM 45.7°F7.6°C 41.8°F5.4°C 86% 4.6 mph S7.4 kmh S 8.1 mph13.0 kmh 29.76 in1007.8 mb - 0.00 in0.0 mm 0.00 in0.0 mm
01:10 AM 45.9°F7.7°C 42.2°F5.7°C 87% 5.8 mph S9.3 kmh S 9.2 mph14.8 kmh 29.76 in1007.8 mb - 0.00 in0.0 mm 0.00 in0.0 mm
01:20 AM 46.1°F7.8°C 42.4°F5.8°C 87% 6.9 mph S11.1 kmh S 10.4 mph16.7 kmh 29.75 in1007.5 mb - 0.00 in0.0 mm 0.00 in0.0 mm
01:30 AM 46.1°F7.8°C 42.1°F5.6°C 86% 3.5 mph S5.6 kmh S 8.1 mph13.0 kmh 29.75 in1007.5 mb - 0.00 in0.0 mm 0.00 in0.0 mm
01:40 AM 46.2°F7.9°C 42.5°F5.8°C 87% 5.8 mph S9.3 kmh S 9.2 mph14.8 kmh 29.75 in1007.5 mb - 0.00 in0.0 mm 0.00 in0.0 mm
01:50 AM 46.5°F8.1°C 42.6°F5.9°C 86% 6.9 mph S11.1 kmh S 11.5 mph18.5 kmh 29.75 in1007.5 mb - 0.00 in0.0 mm 0.00 in0.0 mm
02:00 AM 46.8°F8.2°C 42.8°F6.0°C 86% 5.8 mph S9.3 kmh S 9.2 mph14.8 kmh 29.75 in1007.5 mb - 0.00 in0.0 mm 0.00 in0.0 mm
02:10 AM 47.1°F8.4°C 43.1°F6.2°C 86% 4.6 mph S7.4 kmh S 4.6 mph7.4 kmh 29.75 in1007.5 mb - 0.00 in0.0 mm 0.00 in0.0 mm
02:20 AM 47.1°F8.4°C 43.1°F6.2°C 86% 5.8 mph S9.3 kmh S 10.4 mph16.7 kmh 29.75 in1007.5 mb - 0.00 in0.0 mm 0.00 in0.0 mm
02:30 AM 46.9°F8.3°C 42.7°F5.9°C 85% 5.8 mph S9.3 kmh S 6.9 mph11.1 kmh 29.75 in1007.5 mb - 0.00 in0.0 mm 0.00 in0.0 mm
02:40 AM 46.8°F8.2°C 42.5°F5.8°C 85% 5.8 mph S9.3 kmh S 11.5 mph18.5 kmh 29.74 in1007.1 mb - 0.00 in0.0 mm 0.00 in0.0 mm
02:50 AM 46.2°F7.9°C 41.9°F5.5°C 85% 3.5 mph S5.6 kmh S 5.8 mph9.3 kmh 29.74 in1007.1 mb - 0.00 in0.0 mm 0.00 in0.0 mm
03:00 AM 46.2°F7.9°C 42.2°F5.7°C 86% 5.8 mph S9.3 kmh S 6.9 mph11.1 kmh 29.73 in1006.8 mb - 0.00 in0.0 mm 0.00 in0.0 mm
03:10 AM 46.1°F7.8°C 42.1°F5.6°C 86% 5.8 mph S9.3 kmh S 8.1 mph13.0 kmh 29.73 in1006.8 mb - 0.00 in0.0 mm 0.00 in0.0 mm
03:20 AM 46.1°F7.8°C 42.2°F5.7°C 86% 4.6 mph S7.4 kmh S 5.8 mph9.3 kmh 29.73 in1006.8 mb - 0.00 in0.0 mm 0.00 in0.0 mm
03:30 AM 46.2°F7.9°C 42.3°F5.7°C 86% 6.9 mph S11.1 kmh S 10.4 mph16.7 kmh 29.72 in1006.4 mb - 0.00 in0.0 mm 0.00 in0.0 mm
03:40 AM 46.3°F7.9°C 42.3°F5.7°C 86% 4.6 mph S7.4 kmh S 6.9 mph11.1 kmh 29.72 in1006.4 mb - 0.00 in0.0 mm 0.00 in0.0 mm
03:50 AM 46.5°F8.1°C 42.5°F5.8°C 86% 4.6 mph S7.4 kmh S 9.2 mph14.8 kmh 29.72 in1006.4 mb - 0.00 in0.0 mm 0.00 in0.0 mm
04:00 AM 46.5°F8.1°C 42.5°F5.8°C 86% 4.6 mph S7.4 kmh S 8.1 mph13.0 kmh 29.72 in1006.4 mb - 0.00 in0.0 mm 0.00 in0.0 mm
04:10 AM 46.5°F8.1°C 42.5°F5.8°C 86% 5.8 mph S9.3 kmh S 11.5 mph18.5 kmh 29.72 in1006.4 mb - 0.00 in0.0 mm 0.00 in0.0 mm
04:20 AM 46.4°F8.0°C 42.4°F5.8°C 86% 5.8 mph S9.3 kmh S 8.1 mph13.0 kmh 29.72 in1006.4 mb - 0.00 in0.0 mm 0.00 in0.0 mm
04:30 AM 46.3°F7.9°C 42.4°F5.8°C 86% 5.8 mph S9.3 kmh S 9.2 mph14.8 kmh 29.72 in1006.4 mb - 0.00 in0.0 mm 0.00 in0.0 mm
04:40 AM 46.3°F7.9°C 42.6°F5.9°C 87% 6.9 mph S11.1 kmh S 11.5 mph18.5 kmh 29.72 in1006.4 mb - 0.00 in0.0 mm 0.00 in0.0 mm
04:50 AM 46.2°F7.9°C 42.6°F5.9°C 87% 5.8 mph S9.3 kmh S 9.2 mph14.8 kmh 29.72 in1006.4 mb - 0.00 in0.0 mm 0.00 in0.0 mm
05:00 AM 46.6°F8.1°C 42.9°F6.1°C 87% 5.8 mph S9.3 kmh S 10.4 mph16.7 kmh 29.71 in1006.1 mb - 0.00 in0.0 mm 0.00 in0.0 mm
05:10 AM 46.5°F8.1°C 42.5°F5.8°C 86% 6.9 mph S11.1 kmh S 12.7 mph20.4 kmh 29.71 in1006.1 mb - 0.00 in0.0 mm 0.00 in0.0 mm
05:20 AM 46.4°F8.0°C 42.7°F5.9°C 87% 4.6 mph S7.4 kmh S 8.1 mph13.0 kmh 29.71 in1006.1 mb - 0.00 in0.0 mm 0.00 in0.0 mm
05:30 AM 46.4°F8.0°C 42.7°F5.9°C 87% 5.8 mph S9.3 kmh S 8.1 mph13.0 kmh 29.70 in1005.8 mb - 0.00 in0.0 mm 0.00 in0.0 mm
05:40 AM 46.2°F7.9°C 42.5°F5.8°C 87% 6.9 mph S11.1 kmh S 12.7 mph20.4 kmh 29.70 in1005.8 mb - 0.00 in0.0 mm 0.00 in0.0 mm
05:50 AM 46.3°F7.9°C 42.9°F6.1°C 88% 8.1 mph S13.0 kmh S 11.5 mph18.5 kmh 29.69 in1005.4 mb - 0.00 in0.0 mm 0.00 in0.0 mm
06:00 AM 46.1°F7.8°C 42.7°F5.9°C 88% 6.9 mph S11.1 kmh S 10.4 mph16.7 kmh 29.69 in1005.4 mb - 0.00 in0.0 mm 0.00 in0.0 mm
06:10 AM 46.2°F7.9°C 42.8°F6.0°C 88% 5.8 mph S9.3 kmh S 10.4 mph16.7 kmh 29.68 in1005.1 mb - 0.00 in0.0 mm 0.00 in0.0 mm
06:20 AM 46.4°F8.0°C 43.0°F6.1°C 88% 8.1 mph S13.0 kmh S 16.1 mph25.9 kmh 29.68 in1005.1 mb - 0.00 in0.0 mm 0.00 in0.0 mm
06:30 AM 46.5°F8.1°C 43.1°F6.2°C 88% 6.9 mph S11.1 kmh S 10.4 mph16.7 kmh 29.68 in1005.1 mb - 0.00 in0.0 mm 0.00 in0.0 mm
06:40 AM 46.5°F8.1°C 43.1°F6.2°C 88% 6.9 mph S11.1 kmh S 15.0 mph24.1 kmh 29.68 in1005.1 mb - 0.00 in0.0 mm 0.00 in0.0 mm
06:50 AM 46.3°F7.9°C 43.0°F6.1°C 88% 5.8 mph S9.3 kmh S 9.2 mph14.8 kmh 29.68 in1005.1 mb - 0.00 in0.0 mm 0.00 in0.0 mm
07:00 AM 46.1°F7.8°C 43.1°F6.2°C 89% 4.6 mph S7.4 kmh S 6.9 mph11.1 kmh 29.68 in1005.1 mb - 0.00 in0.0 mm 0.00 in0.0 mm
07:10 AM 45.9°F7.7°C 42.8°F6.0°C 89% 5.8 mph S9.3 kmh S 8.1 mph13.0 kmh 29.68 in1005.1 mb - 0.00 in0.0 mm 0.00 in0.0 mm
07:20 AM 45.7°F7.6°C 42.7°F5.9°C 89% 6.9 mph S11.1 kmh S 15.0 mph24.1 kmh 29.69 in1005.4 mb - 0.00 in0.0 mm 0.00 in0.0 mm
07:30 AM 45.8°F7.7°C 43.0°F6.1°C 90% 6.9 mph S11.1 kmh S 10.4 mph16.7 kmh 29.68 in1005.1 mb - 0.00 in0.0 mm 0.00 in0.0 mm
07:40 AM 45.7°F7.6°C 42.9°F6.1°C 90% 4.6 mph S7.4 kmh S 11.5 mph18.5 kmh 29.68 in1005.1 mb - 0.00 in0.0 mm 0.00 in0.0 mm
07:50 AM 45.7°F7.6°C 42.9°F6.1°C 90% 5.8 mph S9.3 kmh S 10.4 mph16.7 kmh 29.68 in1005.1 mb - 0.00 in0.0 mm 0.00 in0.0 mm
08:00 AM 45.8°F7.7°C 43.0°F6.1°C 90% 6.9 mph S11.1 kmh S 11.5 mph18.5 kmh 29.68 in1005.1 mb - 0.00 in0.0 mm 0.00 in0.0 mm
08:10 AM 46.0°F7.8°C 43.5°F6.4°C 91% 5.8 mph S9.3 kmh S 11.5 mph18.5 kmh 29.69 in1005.4 mb - 0.00 in0.0 mm 0.00 in0.0 mm
08:20 AM 46.3°F7.9°C 43.8°F6.6°C 91% 5.8 mph S9.3 kmh S 11.5 mph18.5 kmh 29.69 in1005.4 mb - 0.00 in0.0 mm 0.00 in0.0 mm
08:30 AM 46.5°F8.1°C 44.0°F6.7°C 91% 5.8 mph S9.3 kmh S 11.5 mph18.5 kmh 29.69 in1005.4 mb - 0.00 in0.0 mm 0.00 in0.0 mm
08:40 AM 46.6°F8.1°C 44.1°F6.7°C 91% 5.8 mph S9.3 kmh S 6.9 mph11.1 kmh 29.69 in1005.4 mb - 0.00 in0.0 mm 0.00 in0.0 mm
08:50 AM 46.6°F8.1°C 44.1°F6.7°C 91% 6.9 mph S11.1 kmh S 9.2 mph14.8 kmh 29.69 in1005.4 mb - 0.00 in0.0 mm 0.00 in0.0 mm
09:00 AM 46.6°F8.1°C 44.1°F6.7°C 91% 4.6 mph S7.4 kmh S 6.9 mph11.1 kmh 29.70 in1005.8 mb - 0.00 in0.0 mm 0.00 in0.0 mm
09:10 AM 46.6°F8.1°C 44.1°F6.7°C 91% 4.6 mph S7.4 kmh S 10.4 mph16.7 kmh 29.70 in1005.8 mb - 0.00 in0.0 mm 0.00 in0.0 mm
09:20 AM 46.6°F8.1°C 44.1°F6.7°C 91% 4.6 mph S7.4 kmh S 6.9 mph11.1 kmh 29.70 in1005.8 mb - 0.00 in0.0 mm 0.00 in0.0 mm
09:30 AM 46.6°F8.1°C 44.1°F6.7°C 91% 5.8 mph S9.3 kmh S 10.4 mph16.7 kmh 29.69 in1005.4 mb - 0.00 in0.0 mm 0.00 in0.0 mm
09:40 AM 46.6°F8.1°C 44.1°F6.7°C 91% 8.1 mph SSW13.0 kmh SSW 11.5 mph18.5 kmh 29.70 in1005.8 mb - 0.00 in0.0 mm 0.00 in0.0 mm
09:50 AM 46.6°F8.1°C 44.1°F6.7°C 91% 3.5 mph S5.6 kmh S 6.9 mph11.1 kmh 29.70 in1005.8 mb - 0.00 in0.0 mm 0.00 in0.0 mm
10:00 AM 46.6°F8.1°C 44.1°F6.7°C 91% 5.8 mph S9.3 kmh S 8.1 mph13.0 kmh 29.70 in1005.8 mb - 0.00 in0.0 mm 0.00 in0.0 mm
10:10 AM 46.6°F8.1°C 44.1°F6.7°C 91% 4.6 mph S7.4 kmh S 9.2 mph14.8 kmh 29.70 in1005.8 mb - 0.00 in0.0 mm 0.00 in0.0 mm
10:20 AM 46.6°F8.1°C 44.1°F6.7°C 91% 5.8 mph S9.3 kmh S 11.5 mph18.5 kmh 29.70 in1005.8 mb - 0.00 in0.0 mm 0.00 in0.0 mm
10:30 AM 46.6°F8.1°C 44.1°F6.7°C 91% 4.6 mph S7.4 kmh S 6.9 mph11.1 kmh 29.70 in1005.8 mb - 0.00 in0.0 mm 0.00 in0.0 mm
10:40 AM 46.6°F8.1°C 44.1°F6.7°C 91% 6.9 mph SSW11.1 kmh SSW 11.5 mph18.5 kmh 29.70 in1005.8 mb - 0.00 in0.0 mm 0.00 in0.0 mm
10:50 AM 46.6°F8.1°C 44.1°F6.7°C 91% 4.6 mph S7.4 kmh S 6.9 mph11.1 kmh 29.70 in1005.8 mb - 0.00 in0.0 mm 0.00 in0.0 mm
11:00 AM 46.6°F8.1°C 44.1°F6.7°C 91% 5.8 mph SSW9.3 kmh SSW 9.2 mph14.8 kmh 29.70 in1005.8 mb - 0.00 in0.0 mm 0.00 in0.0 mm
11:10 AM 46.6°F8.1°C 44.1°F6.7°C 91% 4.6 mph SSW7.4 kmh SSW 10.4 mph16.7 kmh 29.70 in1005.8 mb - 0.00 in0.0 mm 0.00 in0.0 mm
11:20 AM 46.6°F8.1°C 44.1°F6.7°C 91% 4.6 mph S7.4 kmh S 9.2 mph14.8 kmh 29.70 in1005.8 mb - 0.00 in0.0 mm 0.00 in0.0 mm
11:30 AM 46.6°F8.1°C 44.1°F6.7°C 91% 5.8 mph SSW9.3 kmh SSW 6.9 mph11.1 kmh 29.70 in1005.8 mb - 0.00 in0.0 mm 0.00 in0.0 mm
11:40 AM 49.3°F9.6°C 47.1°F8.4°C 92% 5.8 mph S9.3 kmh S 8.1 mph13.0 kmh 29.69 in1005.4 mb - 0.07 in1.8 mm 0.07 in1.8 mm
11:50 AM 48.0°F8.9°C 45.5°F7.5°C 91% 4.6 mph SSW7.4 kmh SSW 4.6 mph7.4 kmh 29.69 in1005.4 mb - 0.00 in0.0 mm 0.07 in1.8 mm
12:00 PM 47.2°F8.4°C 44.7°F7.1°C 91% 3.5 mph SSW5.6 kmh SSW 8.1 mph13.0 kmh 29.69 in1005.4 mb - 0.00 in0.0 mm 0.07 in1.8 mm
12:10 PM 46.5°F8.1°C 44.1°F6.7°C 91% 4.6 mph SW7.4 kmh SW 6.9 mph11.1 kmh 29.69 in1005.4 mb - 0.00 in0.0 mm 0.07 in1.8 mm
12:20 PM 46.2°F7.9°C 43.7°F6.5°C 91% 3.5 mph SW5.6 kmh SW 5.8 mph9.3 kmh 29.69 in1005.4 mb - 0.00 in0.0 mm 0.07 in1.8 mm
12:30 PM 46.0°F7.8°C 43.5°F6.4°C 91% 4.6 mph SW7.4 kmh SW 6.9 mph11.1 kmh 29.69 in1005.4 mb - 0.00 in0.0 mm 0.07 in1.8 mm
12:40 PM 45.6°F7.6°C 43.1°F6.2°C 91% 4.6 mph SW7.4 kmh SW 5.8 mph9.3 kmh 29.69 in1005.4 mb - 0.00 in0.0 mm 0.07 in1.8 mm
12:50 PM 47.6°F8.7°C 45.7°F7.6°C 93% 3.5 mph SW5.6 kmh SW 4.6 mph7.4 kmh 29.69 in1005.4 mb - 0.00 in0.0 mm 0.07 in1.8 mm
01:00 PM 47.6°F8.7°C 45.7°F7.6°C 93% 3.5 mph SW5.6 kmh SW 4.6 mph7.4 kmh 29.69 in1005.4 mb - 0.00 in0.0 mm 0.07 in1.8 mm
01:10 PM 47.5°F8.6°C 45.6°F7.6°C 93% 3.5 mph SSW5.6 kmh SSW 3.5 mph5.6 kmh 29.69 in1005.4 mb - 0.00 in0.0 mm 0.07 in1.8 mm
01:20 PM 47.6°F8.7°C 46.0°F7.8°C 94% 3.5 mph SW5.6 kmh SW 6.9 mph11.1 kmh 29.70 in1005.8 mb - 0.00 in0.0 mm 0.07 in1.8 mm
01:30 PM 47.9°F8.8°C 46.2°F7.9°C 94% 4.6 mph WSW7.4 kmh WSW 6.9 mph11.1 kmh 29.70 in1005.8 mb - 0.00 in0.0 mm 0.07 in1.8 mm
01:40 PM 47.8°F8.8°C 46.1°F7.8°C 94% 5.8 mph SW9.3 kmh SW 5.8 mph9.3 kmh 29.70 in1005.8 mb - 0.00 in0.0 mm 0.07 in1.8 mm
01:50 PM 47.6°F8.7°C 45.9°F7.7°C 94% 4.6 mph SW7.4 kmh SW 4.6 mph7.4 kmh 29.71 in1006.1 mb - 0.00 in0.0 mm 0.07 in1.8 mm
02:00 PM 47.2°F8.4°C 45.6°F7.6°C 94% 5.8 mph SW9.3 kmh SW 8.1 mph13.0 kmh 29.71 in1006.1 mb - 0.00 in0.0 mm 0.07 in1.8 mm
02:10 PM 47.1°F8.4°C 45.4°F7.4°C 94% 5.8 mph WSW9.3 kmh WSW 11.5 mph18.5 kmh 29.72 in1006.4 mb - 0.00 in0.0 mm 0.07 in1.8 mm
02:20 PM 46.4°F8.0°C 44.5°F6.9°C 93% 5.8 mph WSW9.3 kmh WSW 6.9 mph11.1 kmh 29.72 in1006.4 mb - 0.00 in0.0 mm 0.07 in1.8 mm
02:30 PM 45.7°F7.6°C 43.5°F6.4°C 92% 8.1 mph W13.0 kmh W 11.5 mph18.5 kmh 29.72 in1006.4 mb - 0.00 in0.0 mm 0.07 in1.8 mm
02:40 PM 43.9°F6.6°C 41.2°F5.1°C 90% 8.1 mph W13.0 kmh W 10.4 mph16.7 kmh 29.73 in1006.8 mb - 0.00 in0.0 mm 0.07 in1.8 mm
02:50 PM 42.5°F5.8°C 39.8°F4.3°C 90% 6.9 mph W11.1 kmh W 12.7 mph20.4 kmh 29.74 in1007.1 mb - 0.00 in0.0 mm 0.07 in1.8 mm
03:00 PM 41.4°F5.2°C 38.7°F3.7°C 90% 8.1 mph W13.0 kmh W 16.1 mph25.9 kmh 29.75 in1007.5 mb - 0.00 in0.0 mm 0.07 in1.8 mm
03:10 PM 40.3°F4.6°C 37.6°F3.1°C 90% 6.9 mph W11.1 kmh W 11.5 mph18.5 kmh 29.76 in1007.8 mb - 0.00 in0.0 mm 0.07 in1.8 mm
03:20 PM 39.2°F4.0°C 36.0°F2.2°C 88% 6.9 mph W11.1 kmh W 17.3 mph27.8 kmh 29.77 in1008.1 mb - 0.00 in0.0 mm 0.07 in1.8 mm
03:30 PM 38.2°F3.4°C 35.0°F1.7°C 88% 8.1 mph WSW13.0 kmh WSW 16.1 mph25.9 kmh 29.77 in1008.1 mb - 0.00 in0.0 mm 0.07 in1.8 mm
03:40 PM 37.8°F3.2°C 34.3°F1.3°C 87% 6.9 mph WNW11.1 kmh WNW 11.5 mph18.5 kmh 29.78 in1008.5 mb - 0.00 in0.0 mm 0.07 in1.8 mm
03:50 PM 37.7°F3.2°C 34.2°F1.2°C 87% 6.9 mph W11.1 kmh W 10.4 mph16.7 kmh 29.78 in1008.5 mb - 0.00 in0.0 mm 0.07 in1.8 mm
04:00 PM 37.8°F3.2°C 34.3°F1.3°C 87% 5.8 mph W9.3 kmh W 8.1 mph13.0 kmh 29.78 in1008.5 mb - 0.00 in0.0 mm 0.07 in1.8 mm
04:10 PM 37.3°F2.9°C 33.8°F1.0°C 87% 4.6 mph WSW7.4 kmh WSW 10.4 mph16.7 kmh 29.79 in1008.8 mb - 0.00 in0.0 mm 0.07 in1.8 mm
04:20 PM 37.1°F2.8°C 33.6°F0.9°C 87% 4.6 mph WSW7.4 kmh WSW 10.4 mph16.7 kmh 29.80 in1009.1 mb - 0.00 in0.0 mm 0.07 in1.8 mm
04:30 PM 36.6°F2.6°C 33.1°F0.6°C 87% 8.1 mph W13.0 kmh W 11.5 mph18.5 kmh 29.80 in1009.1 mb - 0.00 in0.0 mm 0.07 in1.8 mm
04:40 PM 36.1°F2.3°C 32.6°F0.3°C 87% 8.1 mph W13.0 kmh W 10.4 mph16.7 kmh 29.81 in1009.5 mb - 0.00 in0.0 mm 0.07 in1.8 mm
04:50 PM 35.7°F2.1°C 32.2°F0.1°C 87% 5.8 mph W9.3 kmh W 8.1 mph13.0 kmh 29.82 in1009.8 mb - 0.00 in0.0 mm 0.07 in1.8 mm
05:00 PM 35.3°F1.8°C 31.8°F-0.1°C 87% 5.8 mph W9.3 kmh W 6.9 mph11.1 kmh 29.82 in1009.8 mb - 0.00 in0.0 mm 0.07 in1.8 mm
05:10 PM 35.0°F1.7°C 31.8°F-0.1°C 88% 6.9 mph WNW11.1 kmh WNW 11.5 mph18.5 kmh 29.83 in1010.2 mb - 0.00 in0.0 mm 0.07 in1.8 mm
05:20 PM 34.8°F1.6°C 31.6°F-0.2°C 88% 8.1 mph WNW13.0 kmh WNW 11.5 mph18.5 kmh 29.83 in1010.2 mb - 0.00 in0.0 mm 0.07 in1.8 mm
05:30 PM 34.7°F1.5°C 31.2°F-0.4°C 87% 4.6 mph WSW7.4 kmh WSW 11.5 mph18.5 kmh 29.84 in1010.5 mb - 0.00 in0.0 mm 0.07 in1.8 mm
05:40 PM 34.6°F1.4°C 31.1°F-0.5°C 87% 6.9 mph W11.1 kmh W 11.5 mph18.5 kmh 29.85 in1010.8 mb - 0.00 in0.0 mm 0.07 in1.8 mm
05:50 PM 34.4°F1.3°C 30.9°F-0.6°C 87% 5.8 mph WSW9.3 kmh WSW 9.2 mph14.8 kmh 29.85 in1010.8 mb - 0.00 in0.0 mm 0.07 in1.8 mm
06:00 PM 34.3°F1.3°C 30.8°F-0.7°C 87% 5.8 mph W9.3 kmh W 8.1 mph13.0 kmh 29.86 in1011.2 mb - 0.00 in0.0 mm 0.07 in1.8 mm
06:10 PM 34.0°F1.1°C 30.3°F-0.9°C 86% 6.9 mph W11.1 kmh W 11.5 mph18.5 kmh 29.86 in1011.2 mb - 0.00 in0.0 mm 0.07 in1.8 mm
06:20 PM 33.7°F0.9°C 30.0°F-1.1°C 86% 5.8 mph W9.3 kmh W 9.2 mph14.8 kmh 29.87 in1011.5 mb - 0.00 in0.0 mm 0.07 in1.8 mm
06:30 PM 33.5°F0.8°C 29.7°F-1.3°C 86% 6.9 mph W11.1 kmh W 8.1 mph13.0 kmh 29.88 in1011.9 mb - 0.00 in0.0 mm 0.07 in1.8 mm
06:40 PM 33.1°F0.6°C 29.4°F-1.4°C 86% 8.1 mph WSW13.0 kmh WSW 12.7 mph20.4 kmh 29.88 in1011.9 mb - 0.00 in0.0 mm 0.07 in1.8 mm
06:50 PM 32.7°F0.4°C 29.0°F-1.7°C 86% 4.6 mph W7.4 kmh W 8.1 mph13.0 kmh 29.88 in1011.9 mb - 0.00 in0.0 mm 0.07 in1.8 mm
07:00 PM 32.5°F0.3°C 28.8°F-1.8°C 86% 8.1 mph W13.0 kmh W 9.2 mph14.8 kmh 29.89 in1012.2 mb - 0.00 in0.0 mm 0.07 in1.8 mm
07:10 PM 32.3°F0.2°C 28.6°F-1.9°C 86% 6.9 mph WSW11.1 kmh WSW 10.4 mph16.7 kmh 29.89 in1012.2 mb - 0.00 in0.0 mm 0.07 in1.8 mm
07:20 PM 32.2°F0.1°C 28.4°F-2.0°C 86% 5.8 mph WSW9.3 kmh WSW 8.1 mph13.0 kmh 29.89 in1012.2 mb - 0.00 in0.0 mm 0.07 in1.8 mm
07:30 PM 32.0°F0.0°C 28.3°F-2.1°C 86% 6.9 mph WSW11.1 kmh WSW 11.5 mph18.5 kmh 29.90 in1012.5 mb - 0.00 in0.0 mm 0.07 in1.8 mm
07:40 PM 32.0°F0.0°C 28.3°F-2.1°C 86% 5.8 mph W9.3 kmh W 8.1 mph13.0 kmh 29.90 in1012.5 mb - 0.00 in0.0 mm 0.07 in1.8 mm
07:50 PM 32.0°F0.0°C 28.2°F-2.1°C 86% 5.8 mph W9.3 kmh W 8.1 mph13.0 kmh 29.91 in1012.9 mb - 0.00 in0.0 mm 0.07 in1.8 mm
08:00 PM 31.9°F-0.1°C 28.2°F-2.1°C 86% 5.8 mph W9.3 kmh W 8.1 mph13.0 kmh 29.91 in1012.9 mb - 0.00 in0.0 mm 0.07 in1.8 mm
08:10 PM 31.8°F-0.1°C 27.8°F-2.3°C 85% 9.2 mph WNW14.8 kmh WNW 11.5 mph18.5 kmh 29.92 in1013.2 mb - 0.00 in0.0 mm 0.07 in1.8 mm
08:20 PM 31.7°F-0.2°C 27.8°F-2.3°C 85% 6.9 mph WNW11.1 kmh WNW 13.8 mph22.2 kmh 29.93 in1013.5 mb - 0.00 in0.0 mm 0.07 in1.8 mm
08:30 PM 31.6°F-0.2°C 27.6°F-2.4°C 85% 6.9 mph W11.1 kmh W 9.2 mph14.8 kmh 29.94 in1013.9 mb - 0.00 in0.0 mm 0.07 in1.8 mm
08:40 PM 31.5°F-0.3°C 27.8°F-2.3°C 86% 6.9 mph W11.1 kmh W 11.5 mph18.5 kmh 29.94 in1013.9 mb - 0.00 in0.0 mm 0.07 in1.8 mm
08:50 PM 31.4°F-0.3°C 27.4°F-2.6°C 85% 5.8 mph W9.3 kmh W 9.2 mph14.8 kmh 29.94 in1013.9 mb - 0.00 in0.0 mm 0.07 in1.8 mm
09:00 PM 31.4°F-0.3°C 27.1°F-2.7°C 84% 8.1 mph WNW13.0 kmh WNW 11.5 mph18.5 kmh 29.95 in1014.2 mb - 0.00 in0.0 mm 0.07 in1.8 mm
09:10 PM 31.2°F-0.4°C 26.9°F-2.8°C 84% 10.4 mph NW16.7 kmh NW 12.7 mph20.4 kmh 29.96 in1014.6 mb - 0.00 in0.0 mm 0.07 in1.8 mm
09:20 PM 30.9°F-0.6°C 26.6°F-3.0°C 84% 6.9 mph W11.1 kmh W 11.5 mph18.5 kmh 29.96 in1014.6 mb - 0.00 in0.0 mm 0.07 in1.8 mm
09:30 PM 30.7°F-0.7°C 26.7°F-2.9°C 85% 5.8 mph W9.3 kmh W 4.6 mph7.4 kmh 29.96 in1014.6 mb - 0.00 in0.0 mm 0.07 in1.8 mm
09:40 PM 30.6°F-0.8°C 26.3°F-3.2°C 84% 8.1 mph WNW13.0 kmh WNW 10.4 mph16.7 kmh 29.97 in1014.9 mb - 0.00 in0.0 mm 0.07 in1.8 mm
09:50 PM 30.5°F-0.8°C 26.2°F-3.2°C 84% 4.6 mph WNW7.4 kmh WNW 4.6 mph7.4 kmh 29.97 in1014.9 mb - 0.00 in0.0 mm 0.07 in1.8 mm
10:00 PM 30.3°F-0.9°C 26.0°F-3.3°C 84% 4.6 mph NW7.4 kmh NW 9.2 mph14.8 kmh 29.96 in1014.6 mb - 0.00 in0.0 mm 0.07 in1.8 mm
10:10 PM 30.1°F-1.1°C 26.1°F-3.3°C 85% 4.6 mph WNW7.4 kmh WNW 13.8 mph22.2 kmh 29.97 in1014.9 mb - 0.00 in0.0 mm 0.07 in1.8 mm
10:20 PM 30.0°F-1.1°C 26.0°F-3.3°C 85% 4.6 mph W7.4 kmh W 11.5 mph18.5 kmh 29.98 in1015.2 mb - 0.00 in0.0 mm 0.07 in1.8 mm
10:30 PM 29.8°F-1.2°C 25.6°F-3.6°C 84% 6.9 mph W11.1 kmh W 8.1 mph13.0 kmh 29.98 in1015.2 mb - 0.00 in0.0 mm 0.07 in1.8 mm
10:40 PM 29.6°F-1.3°C 25.6°F-3.6°C 85% 3.5 mph W5.6 kmh W 6.9 mph11.1 kmh 29.99 in1015.6 mb - 0.00 in0.0 mm 0.07 in1.8 mm
10:50 PM 29.4°F-1.4°C 25.2°F-3.8°C 84% 4.6 mph W7.4 kmh W 6.9 mph11.1 kmh 29.99 in1015.6 mb - 0.00 in0.0 mm 0.07 in1.8 mm
11:00 PM 29.1°F-1.6°C 24.9°F-3.9°C 84% 9.2 mph WNW14.8 kmh WNW 13.8 mph22.2 kmh 30.00 in1015.9 mb - 0.00 in0.0 mm 0.07 in1.8 mm
11:10 PM 28.9°F-1.7°C 24.7°F-4.1°C 84% 8.1 mph WNW13.0 kmh WNW 10.4 mph16.7 kmh 30.00 in1015.9 mb - 0.00 in0.0 mm 0.07 in1.8 mm
11:20 PM 28.6°F-1.9°C 24.4°F-4.2°C 84% 4.6 mph W7.4 kmh W 8.1 mph13.0 kmh 30.01 in1016.3 mb - 0.00 in0.0 mm 0.07 in1.8 mm
11:30 PM 28.4°F-2.0°C 24.2°F-4.3°C 84% 5.8 mph W9.3 kmh W 6.9 mph11.1 kmh 30.02 in1016.6 mb - 0.00 in0.0 mm 0.07 in1.8 mm
11:40 PM 28.3°F-2.1°C 23.8°F-4.6°C 83% 8.1 mph W13.0 kmh W 12.7 mph20.4 kmh 30.02 in1016.6 mb - 0.00 in0.0 mm 0.07 in1.8 mm
11:50 PM 28.1°F-2.2°C 23.9°F-4.5°C 84% 5.8 mph W9.3 kmh W 8.1 mph13.0 kmh 30.03 in1016.9 mb - 0.00 in0.0 mm 0.07 in1.8 mm